createdAt,value
2018-12-21T00:02:08.090Z,87.10
2018-12-21T00:04:36.678Z,86.70
2018-12-21T00:07:05.254Z,86.70
2018-12-21T00:09:34.376Z,86.50
2018-12-21T00:12:02.980Z,86.50
2018-12-21T00:14:31.762Z,86.50
2018-12-21T00:17:00.386Z,86.50
2018-12-21T00:19:29.035Z,86.10
2018-12-21T00:21:57.786Z,86.20
2018-12-21T00:24:26.354Z,86.40
2018-12-21T00:26:54.908Z,86.00
2018-12-21T00:29:23.672Z,86.00
2018-12-21T00:31:57.827Z,85.80
2018-12-21T00:34:31.648Z,85.70
2018-12-21T00:37:05.556Z,85.90
2018-12-21T00:39:39.572Z,85.70
2018-12-21T00:42:10.488Z,85.60
2018-12-21T00:44:39.637Z,85.50
2018-12-21T00:47:13.014Z,85.30
2018-12-21T00:49:41.984Z,85.60
2018-12-21T00:52:10.805Z,85.50
2018-12-21T00:54:39.507Z,85.60
2018-12-21T00:57:08.170Z,85.60
2018-12-21T00:59:37.033Z,86.70
2018-12-21T01:02:06.164Z,85.60
2018-12-21T01:04:34.973Z,85.60
2018-12-21T01:07:03.616Z,85.60
2018-12-21T01:09:32.250Z,86.40
2018-12-21T01:12:01.020Z,85.60
2018-12-21T01:14:29.728Z,85.40
2018-12-21T01:16:58.440Z,85.50
2018-12-21T01:19:27.124Z,85.40
2018-12-21T01:21:55.777Z,85.50
2018-12-21T01:24:24.444Z,85.60
2018-12-21T01:26:53.273Z,85.40
2018-12-21T01:29:21.870Z,85.20
2018-12-21T01:31:50.758Z,85.50
2018-12-21T01:34:19.546Z,85.30
2018-12-21T01:36:48.257Z,85.00
2018-12-21T01:39:16.784Z,85.00
2018-12-21T01:41:45.408Z,85.00
2018-12-21T01:44:13.983Z,84.80
2018-12-21T01:46:42.647Z,85.10
2018-12-21T01:49:11.498Z,85.90
2018-12-21T01:51:47.039Z,85.00
2018-12-21T01:54:10.846Z,84.80
2018-12-21T01:56:39.675Z,84.60
2018-12-21T01:59:08.557Z,84.30
2018-12-21T02:01:37.311Z,84.30
2018-12-21T02:04:06.534Z,84.30
2018-12-21T02:06:35.205Z,84.50
2018-12-21T02:09:05.027Z,84.50
2018-12-21T02:11:33.546Z,84.60
2018-12-21T02:14:02.409Z,84.30
2018-12-21T02:16:31.213Z,84.20
2018-12-21T02:18:59.844Z,84.00
2018-12-21T02:21:28.468Z,84.40
2018-12-21T02:23:57.161Z,84.40
2018-12-21T02:26:25.834Z,84.30
2018-12-21T02:28:54.443Z,84.10
2018-12-21T02:31:22.953Z,84.10
2018-12-21T02:33:51.781Z,84.40
2018-12-21T02:36:20.298Z,84.60
2018-12-21T02:38:48.895Z,84.60
2018-12-21T02:41:17.494Z,84.50
2018-12-21T02:43:46.201Z,84.30
2018-12-21T02:46:14.941Z,84.60
2018-12-21T02:48:43.546Z,85.40
2018-12-21T02:51:12.073Z,84.50
2018-12-21T02:53:40.712Z,84.30
2018-12-21T02:56:09.237Z,84.40
2018-12-21T02:58:37.862Z,84.30
2018-12-21T03:01:06.346Z,84.00
2018-12-21T03:03:35.016Z,84.00
2018-12-21T03:06:03.529Z,84.00
2018-12-21T03:08:32.141Z,83.70
2018-12-21T03:11:00.666Z,83.90
2018-12-21T03:13:29.281Z,83.80
2018-12-21T03:15:57.954Z,83.60
2018-12-21T03:18:26.611Z,83.80
2018-12-21T03:20:55.317Z,83.50
2018-12-21T03:23:23.825Z,83.90
2018-12-21T03:25:52.438Z,83.50
2018-12-21T03:28:21.074Z,83.60
2018-12-21T03:30:49.615Z,83.70
2018-12-21T03:33:18.163Z,83.50
2018-12-21T03:35:46.754Z,83.60
2018-12-21T03:38:15.281Z,83.60
2018-12-21T03:40:44.001Z,83.50
2018-12-21T03:43:12.553Z,83.90
2018-12-21T03:45:41.210Z,84.00
2018-12-21T03:48:09.721Z,83.80
2018-12-21T03:50:38.273Z,83.80
2018-12-21T03:53:06.817Z,83.80
2018-12-21T03:55:35.402Z,83.90
2018-12-21T03:58:04.038Z,83.90
2018-12-21T04:00:32.556Z,83.80
2018-12-21T04:03:01.195Z,83.80
2018-12-21T04:05:29.769Z,84.00
2018-12-21T04:07:58.320Z,84.00
2018-12-21T04:10:27.015Z,84.00
2018-12-21T04:12:55.605Z,83.90
2018-12-21T04:15:24.325Z,84.10
2018-12-21T04:17:53.962Z,84.10
2018-12-21T04:20:22.837Z,84.10
2018-12-21T04:22:51.397Z,84.10
2018-12-21T04:25:20.024Z,84.10
2018-12-21T04:27:49.541Z,84.10
2018-12-21T04:30:18.676Z,84.00
2018-12-21T04:32:47.453Z,84.10
2018-12-21T04:35:16.274Z,84.10
2018-12-21T04:37:45.460Z,84.30
2018-12-21T04:40:14.245Z,84.40
2018-12-21T04:42:43.078Z,84.40
2018-12-21T04:45:12.095Z,84.30
2018-12-21T04:47:41.183Z,84.10
2018-12-21T04:50:10.185Z,84.30
2018-12-21T04:52:43.348Z,84.60
2018-12-21T04:55:09.895Z,84.50
2018-12-21T04:57:38.684Z,84.50
2018-12-21T05:00:07.793Z,84.50
2018-12-21T05:02:36.593Z,84.60
2018-12-21T05:05:05.869Z,84.60
2018-12-21T05:07:34.549Z,84.50
2018-12-21T05:10:03.988Z,84.30
2018-12-21T05:12:32.832Z,84.50
2018-12-21T05:15:02.952Z,84.60
2018-12-21T05:17:31.887Z,84.70
2018-12-21T05:20:00.942Z,84.80
2018-12-21T05:22:29.635Z,84.80
2018-12-21T05:24:58.574Z,84.80
2018-12-21T05:27:27.086Z,84.90
2018-12-21T05:29:55.580Z,85.00
2018-12-21T05:32:24.193Z,85.80
2018-12-21T05:34:52.997Z,85.00
2018-12-21T05:37:22.735Z,84.90
2018-12-21T05:39:52.026Z,85.00
2018-12-21T05:42:21.147Z,85.60
2018-12-21T05:44:50.000Z,85.90
2018-12-21T05:47:19.171Z,86.10
2018-12-21T05:49:47.940Z,86.30
2018-12-21T05:52:17.017Z,87.90
2018-12-21T05:54:46.086Z,87.20
2018-12-21T05:57:15.456Z,87.50
2018-12-21T05:59:44.139Z,87.10
2018-12-21T06:02:12.892Z,86.80
2018-12-21T06:04:41.614Z,86.60
2018-12-21T06:07:10.162Z,86.70
2018-12-21T06:09:39.084Z,86.60
2018-12-21T06:12:08.243Z,86.50
2018-12-21T06:14:37.164Z,86.50
2018-12-21T06:17:05.926Z,86.40
2018-12-21T06:19:34.502Z,86.70
2018-12-21T06:22:03.239Z,87.10
2018-12-21T06:24:31.911Z,88.20
2018-12-21T06:27:00.565Z,87.70
2018-12-21T06:29:29.594Z,87.70
2018-12-21T06:31:58.225Z,88.50
2018-12-21T06:34:26.828Z,88.20
2018-12-21T06:36:55.673Z,89.30
2018-12-21T06:39:24.480Z,88.90
2018-12-21T06:41:53.476Z,89.40
2018-12-21T06:44:22.243Z,89.30
2018-12-21T06:46:51.007Z,89.70
2018-12-21T06:49:19.706Z,89.70
2018-12-21T06:51:50.010Z,89.70
2018-12-21T06:54:18.900Z,90.00
2018-12-21T06:56:47.809Z,89.90
2018-12-21T06:59:16.677Z,89.90
2018-12-21T07:01:45.339Z,90.10
2018-12-21T07:04:14.413Z,90.20
2018-12-21T07:06:43.660Z,90.30
2018-12-21T07:09:12.616Z,90.20
2018-12-21T07:11:41.310Z,90.00
2018-12-21T07:14:10.461Z,90.20
2018-12-21T07:16:39.568Z,90.10
2018-12-21T07:19:09.329Z,90.20
2018-12-21T07:21:38.358Z,90.20
2018-12-21T07:24:07.236Z,90.30
2018-12-21T07:26:36.480Z,90.20
2018-12-21T07:29:05.407Z,90.40
2018-12-21T07:31:34.566Z,90.20
2018-12-21T07:34:03.282Z,90.20
2018-12-21T07:36:32.033Z,90.40
2018-12-21T07:39:00.893Z,90.30
2018-12-21T07:41:29.762Z,90.40
2018-12-21T07:43:58.816Z,90.30
2018-12-21T07:46:27.470Z,90.30
2018-12-21T07:48:56.802Z,90.40
2018-12-21T07:51:26.123Z,90.20
2018-12-21T07:53:55.179Z,90.20
2018-12-21T07:56:23.895Z,90.20
2018-12-21T07:58:57.083Z,90.20
2018-12-21T08:01:24.139Z,90.10
2018-12-21T08:03:54.504Z,90.20
2018-12-21T08:06:23.801Z,90.30
2018-12-21T08:08:52.747Z,90.30
2018-12-21T08:11:21.427Z,90.30
2018-12-21T08:13:50.560Z,90.40
2018-12-21T08:16:19.875Z,90.20
2018-12-21T08:18:48.804Z,90.20
2018-12-21T08:21:17.635Z,90.40
2018-12-21T08:23:47.405Z,90.50
2018-12-21T08:26:17.136Z,90.30
2018-12-21T08:28:45.937Z,90.50
2018-12-21T08:31:14.472Z,90.40
2018-12-21T08:33:43.033Z,90.20
2018-12-21T08:36:12.014Z,90.30
2018-12-21T08:38:40.869Z,90.50
2018-12-21T08:41:09.480Z,90.70
2018-12-21T08:43:38.329Z,90.70
2018-12-21T08:46:07.203Z,90.80
2018-12-21T08:48:35.729Z,90.90
2018-12-21T08:51:04.582Z,90.80
2018-12-21T08:53:33.463Z,90.80
2018-12-21T08:56:02.133Z,90.70
2018-12-21T08:58:30.836Z,90.80
2018-12-21T09:00:59.513Z,90.60
2018-12-21T09:03:28.116Z,90.80
2018-12-21T09:05:56.795Z,90.70
2018-12-21T09:08:26.314Z,90.70
2018-12-21T09:10:54.978Z,90.80
2018-12-21T09:13:23.617Z,90.70
2018-12-21T09:15:52.723Z,90.70
2018-12-21T09:18:21.541Z,90.70
2018-12-21T09:20:50.270Z,90.80
2018-12-21T09:23:19.475Z,90.70
2018-12-21T09:25:48.121Z,90.80
2018-12-21T09:28:16.842Z,90.70
2018-12-21T09:30:45.405Z,90.60
2018-12-21T09:33:14.250Z,90.90
2018-12-21T09:35:43.415Z,90.90
2018-12-21T09:38:12.314Z,90.90
2018-12-21T09:40:41.452Z,91.00
2018-12-21T09:43:10.117Z,91.00
2018-12-21T09:45:38.722Z,91.10
2018-12-21T09:48:07.409Z,91.20
2018-12-21T09:50:36.451Z,91.10
2018-12-21T09:53:05.504Z,91.20
2018-12-21T09:55:34.297Z,91.40
2018-12-21T09:58:03.107Z,91.70
2018-12-21T10:00:32.185Z,91.70
2018-12-21T10:03:01.060Z,91.60
2018-12-21T10:05:29.866Z,91.50
2018-12-21T10:07:58.507Z,91.60
2018-12-21T10:10:27.300Z,91.60
2018-12-21T10:12:56.495Z,91.40
2018-12-21T10:15:25.365Z,91.10
2018-12-21T10:17:54.171Z,91.10
2018-12-21T10:20:23.559Z,91.50
2018-12-21T10:22:52.345Z,91.50
2018-12-21T10:25:21.196Z,91.70
2018-12-21T10:27:49.704Z,91.70
2018-12-21T10:30:18.704Z,91.70
2018-12-21T10:32:47.535Z,91.80
2018-12-21T10:35:16.093Z,91.70
2018-12-21T10:37:44.906Z,91.70
2018-12-21T10:40:13.559Z,91.90
2018-12-21T10:42:42.410Z,91.80
2018-12-21T10:45:10.969Z,91.70
2018-12-21T10:47:39.771Z,91.60
2018-12-21T10:50:10.929Z,91.70
2018-12-21T10:52:39.834Z,91.80
2018-12-21T10:55:08.863Z,91.80
2018-12-21T10:57:37.629Z,92.20
2018-12-21T11:00:09.202Z,92.10
2018-12-21T11:02:37.933Z,92.10
2018-12-21T11:05:07.375Z,91.90
2018-12-21T11:07:36.301Z,91.90
2018-12-21T11:10:07.896Z,92.20
2018-12-21T11:12:36.694Z,91.90
2018-12-21T11:15:06.295Z,92.00
2018-12-21T11:17:35.275Z,91.80
2018-12-21T11:20:05.556Z,92.00
2018-12-21T11:22:34.636Z,91.90
2018-12-21T11:25:03.789Z,91.90
2018-12-21T11:27:32.886Z,92.00
2018-12-21T11:30:01.510Z,91.10
2018-12-21T11:32:30.463Z,90.90
2018-12-21T11:34:59.435Z,91.10
2018-12-21T11:37:28.176Z,90.90
2018-12-21T11:39:57.244Z,91.10
2018-12-21T11:42:25.895Z,91.10
2018-12-21T11:44:54.805Z,91.00
2018-12-21T11:47:23.643Z,91.20
2018-12-21T11:49:52.478Z,91.00
2018-12-21T11:52:21.216Z,91.20
2018-12-21T11:54:50.160Z,91.00
2018-12-21T11:57:19.269Z,91.20
2018-12-21T11:59:47.850Z,91.50
2018-12-21T12:05:11.050Z,91.60
2018-12-21T12:07:39.930Z,91.70
2018-12-21T12:10:09.401Z,91.80
2018-12-21T12:12:39.365Z,91.80
2018-12-21T12:15:08.634Z,91.80
2018-12-21T12:17:37.339Z,91.90
2018-12-21T12:20:06.769Z,92.10
2018-12-21T12:22:35.392Z,92.10
2018-12-21T12:25:04.637Z,92.20
2018-12-21T12:27:36.081Z,92.20
2018-12-21T12:30:05.825Z,92.20
2018-12-21T12:32:34.680Z,92.20
2018-12-21T12:35:03.563Z,92.30
2018-12-21T12:37:32.350Z,92.40
2018-12-21T12:40:02.855Z,92.50
2018-12-21T12:42:31.551Z,92.50
2018-12-21T12:45:00.290Z,92.40
2018-12-21T12:47:28.876Z,92.50
2018-12-21T12:49:57.775Z,92.60
2018-12-21T12:52:26.611Z,92.70
2018-12-21T12:55:02.551Z,92.70
2018-12-21T12:57:26.232Z,92.80
2018-12-21T12:59:55.059Z,92.90
2018-12-21T13:02:24.010Z,93.10
2018-12-21T13:04:52.966Z,93.00
2018-12-21T13:07:21.699Z,93.20
2018-12-21T13:09:50.633Z,93.30
2018-12-21T13:12:19.314Z,93.20
2018-12-21T13:14:48.151Z,93.00
2018-12-21T13:17:16.869Z,92.90
2018-12-21T13:19:45.622Z,92.70
2018-12-21T13:22:14.272Z,92.80
2018-12-21T13:24:42.870Z,92.80
2018-12-21T13:27:11.705Z,92.70
2018-12-21T13:29:40.472Z,92.60
2018-12-21T13:32:09.319Z,92.60
2018-12-21T13:34:38.224Z,92.70
2018-12-21T13:37:07.034Z,93.10
2018-12-21T13:39:36.030Z,93.10
2018-12-21T13:42:04.735Z,92.60
2018-12-21T13:44:33.520Z,92.70
2018-12-21T13:47:02.170Z,92.80
2018-12-21T13:49:30.894Z,92.70
2018-12-21T13:51:59.924Z,92.60
2018-12-21T13:54:28.606Z,92.40
2018-12-21T13:56:57.546Z,92.10
2018-12-21T13:59:26.418Z,91.90
2018-12-21T14:01:55.307Z,92.00
2018-12-21T14:04:24.057Z,91.70
2018-12-21T14:06:57.870Z,91.20
2018-12-21T14:09:26.647Z,91.00
2018-12-21T14:11:55.400Z,90.90
2018-12-21T14:14:24.073Z,90.60
2018-12-21T14:16:52.945Z,90.50
2018-12-21T14:19:21.773Z,90.40
2018-12-21T14:21:50.364Z,90.20
2018-12-21T14:24:18.930Z,90.20
2018-12-21T14:26:47.770Z,90.10
2018-12-21T14:29:16.608Z,89.70
2018-12-21T14:31:45.313Z,88.00
2018-12-21T14:34:13.900Z,87.60
2018-12-21T14:36:42.759Z,86.70
2018-12-21T14:39:11.564Z,87.20
2018-12-21T14:41:40.164Z,85.30
2018-12-21T14:44:08.782Z,85.60
2018-12-21T14:46:37.902Z,85.70
2018-12-21T14:49:06.629Z,85.80
2018-12-21T14:51:35.590Z,85.30
2018-12-21T14:54:04.537Z,84.00
2018-12-21T14:56:33.330Z,81.70
2018-12-21T14:59:02.552Z,82.50
2018-12-21T15:01:31.405Z,81.00
2018-12-21T15:04:00.599Z,81.40
2018-12-21T15:06:29.506Z,80.60
2018-12-21T15:08:58.208Z,80.30
2018-12-21T15:11:27.202Z,80.00
2018-12-21T15:13:55.831Z,79.60
2018-12-21T15:16:24.533Z,78.90
2018-12-21T15:18:53.266Z,79.30
2018-12-21T15:21:21.928Z,79.00
2018-12-21T15:23:50.711Z,78.60
2018-12-21T15:26:19.437Z,78.50
2018-12-21T15:28:48.280Z,77.50
2018-12-21T15:31:17.815Z,77.80
2018-12-21T15:33:46.674Z,77.00
2018-12-21T15:36:15.423Z,77.30
2018-12-21T15:38:44.301Z,76.60
2018-12-21T15:41:13.132Z,76.60
2018-12-21T15:43:42.059Z,76.70
2018-12-21T15:46:10.715Z,76.60
2018-12-21T15:48:39.537Z,76.50
2018-12-21T15:51:08.505Z,76.60
2018-12-21T15:53:37.271Z,75.20
2018-12-21T15:56:06.152Z,76.20
2018-12-21T15:58:35.746Z,75.50
2018-12-21T16:01:04.522Z,75.20
2018-12-21T16:03:33.317Z,75.40
2018-12-21T16:06:02.357Z,75.80
2018-12-21T16:08:31.183Z,76.20
2018-12-21T16:10:59.833Z,75.20
2018-12-21T16:13:28.454Z,75.00
2018-12-21T16:15:57.257Z,76.00
2018-12-21T16:18:26.319Z,75.40
2018-12-21T16:20:55.180Z,75.00
2018-12-21T16:23:23.909Z,75.10
2018-12-21T16:25:52.913Z,74.70
2018-12-21T16:28:21.776Z,75.50
2018-12-21T16:30:50.511Z,74.00
2018-12-21T16:33:19.305Z,74.00
2018-12-21T16:35:48.183Z,73.40
2018-12-21T16:38:17.190Z,72.50
2018-12-21T16:40:46.141Z,73.70
2018-12-21T16:43:14.996Z,73.80
2018-12-21T16:45:43.761Z,72.80
2018-12-21T16:48:12.671Z,72.60
2018-12-21T16:50:41.678Z,72.20
2018-12-21T16:53:10.551Z,73.40
2018-12-21T16:55:39.249Z,73.30
2018-12-21T16:58:08.034Z,73.60
2018-12-21T17:00:36.822Z,72.90
2018-12-21T17:03:05.743Z,72.90
2018-12-21T17:05:34.836Z,73.40
2018-12-21T17:08:04.058Z,72.10
2018-12-21T17:10:34.020Z,73.50
2018-12-21T17:13:03.041Z,73.20
2018-12-21T17:15:32.346Z,72.00
2018-12-21T17:18:01.801Z,71.90
2018-12-21T17:20:30.891Z,71.90
2018-12-21T17:23:00.758Z,71.70
2018-12-21T17:25:30.611Z,71.30
2018-12-21T17:27:59.265Z,70.90
2018-12-21T17:30:27.998Z,70.60
2018-12-21T17:32:56.914Z,70.80
2018-12-21T17:35:26.190Z,70.90
2018-12-21T17:37:55.144Z,70.40
2018-12-21T17:40:23.993Z,70.90
2018-12-21T17:42:52.933Z,70.90
2018-12-21T17:45:21.861Z,71.60
2018-12-21T17:47:50.933Z,71.70
2018-12-21T17:50:19.548Z,72.20
2018-12-21T17:52:48.381Z,73.00
2018-12-21T17:55:17.191Z,72.80
2018-12-21T17:57:46.061Z,74.30
2018-12-21T18:00:18.326Z,75.10
2018-12-21T18:02:50.948Z,76.10
2018-12-21T18:05:20.388Z,77.10
2018-12-21T18:07:49.197Z,78.00
2018-12-21T18:10:18.267Z,80.50
2018-12-21T18:12:47.152Z,81.20
2018-12-21T18:15:16.041Z,82.70
2018-12-21T18:17:44.939Z,82.80
2018-12-21T18:20:14.287Z,83.60
2018-12-21T18:22:43.608Z,83.50
2018-12-21T18:25:15.953Z,83.30
2018-12-21T18:27:48.013Z,84.20
2018-12-21T18:30:27.997Z,84.80
2018-12-21T18:32:57.446Z,85.30
2018-12-21T18:35:26.381Z,85.90
2018-12-21T18:37:59.204Z,85.60
2018-12-21T18:40:28.833Z,87.70
2018-12-21T18:42:57.627Z,88.10
2018-12-21T18:45:26.460Z,88.70
2018-12-21T18:47:55.403Z,89.50
2018-12-21T18:50:25.441Z,89.80
2018-12-21T18:52:54.502Z,88.80
2018-12-21T18:55:23.476Z,89.60
2018-12-21T18:57:52.331Z,87.10
2018-12-21T19:00:21.603Z,85.10
2018-12-21T19:02:51.200Z,85.00
2018-12-21T19:05:20.424Z,83.70
2018-12-21T19:07:49.457Z,83.00
2018-12-21T19:10:18.618Z,81.30
2018-12-21T19:12:47.330Z,81.40
2018-12-21T19:15:16.127Z,80.40
2018-12-21T19:17:45.206Z,81.00
2018-12-21T19:20:14.059Z,80.00
2018-12-21T19:22:42.854Z,79.00
2018-12-21T19:25:12.327Z,78.40
2018-12-21T19:27:41.798Z,77.70
2018-12-21T19:30:12.233Z,78.00
2018-12-21T19:32:43.310Z,77.60
2018-12-21T19:35:13.624Z,77.40
2018-12-21T19:37:42.639Z,77.00
2018-12-21T19:40:12.618Z,77.30
2018-12-21T19:42:41.973Z,76.60
2018-12-21T19:45:12.792Z,76.70
2018-12-21T19:47:41.929Z,75.70
2018-12-21T19:50:11.569Z,75.40
2018-12-21T19:52:41.041Z,75.10
2018-12-21T19:55:18.702Z,75.50
2018-12-21T19:57:47.905Z,75.10
2018-12-21T20:00:16.597Z,75.20
2018-12-21T20:02:45.418Z,74.90
2018-12-21T20:05:14.212Z,75.30
2018-12-21T20:07:43.116Z,74.50
2018-12-21T20:10:12.691Z,75.40
2018-12-21T20:12:41.718Z,74.60
2018-12-21T20:15:11.690Z,74.10
2018-12-21T20:17:41.006Z,74.90
2018-12-21T20:20:11.319Z,75.30
2018-12-21T20:22:40.457Z,75.20
2018-12-21T20:25:10.659Z,75.30
2018-12-21T20:27:40.291Z,75.20
2018-12-21T20:30:12.301Z,76.10
2018-12-21T20:32:41.105Z,76.10
2018-12-21T20:35:10.362Z,76.30
2018-12-21T20:37:39.694Z,76.30
2018-12-21T20:40:10.321Z,75.90
2018-12-21T20:42:39.592Z,75.70
2018-12-21T20:45:10.057Z,75.50
2018-12-21T20:47:38.957Z,75.20
2018-12-21T20:50:11.424Z,75.00
2018-12-21T20:52:41.031Z,74.40
2018-12-21T20:55:10.270Z,74.60
2018-12-21T20:57:40.185Z,75.00
2018-12-21T21:00:12.676Z,75.30
2018-12-21T21:02:41.547Z,74.70
2018-12-21T21:05:10.319Z,74.80
2018-12-21T21:07:39.387Z,74.10
2018-12-21T21:10:11.697Z,73.90
2018-12-21T21:12:41.046Z,74.40
2018-12-21T21:15:11.608Z,74.10
2018-12-21T21:17:40.570Z,74.30
2018-12-21T21:20:12.274Z,73.50
2018-12-21T21:22:41.530Z,73.70
2018-12-21T21:25:10.452Z,74.00
2018-12-21T21:27:39.686Z,74.20
2018-12-21T21:30:12.249Z,73.90
2018-12-21T21:32:41.078Z,74.00
2018-12-21T21:35:10.117Z,74.70
2018-12-21T21:37:39.146Z,74.30
2018-12-21T21:40:11.950Z,74.00
2018-12-21T21:42:40.721Z,74.30
2018-12-21T21:45:09.995Z,74.00
2018-12-21T21:47:39.097Z,74.60
2018-12-21T21:50:08.789Z,74.20
2018-12-21T21:52:37.836Z,74.20
2018-12-21T21:55:06.883Z,74.50
2018-12-21T21:57:39.505Z,74.70
2018-12-21T22:00:10.333Z,75.10
2018-12-21T22:02:39.203Z,75.00
2018-12-21T22:05:08.442Z,74.80
2018-12-21T22:07:37.528Z,75.10
2018-12-21T22:10:08.887Z,75.10
2018-12-21T22:12:38.034Z,75.10
2018-12-21T22:15:08.282Z,74.70
2018-12-21T22:17:37.156Z,75.20
2018-12-21T22:20:08.715Z,75.10
2018-12-21T22:22:37.817Z,75.30
2018-12-21T22:25:06.944Z,75.70
2018-12-21T22:27:36.079Z,75.00
2018-12-21T22:30:07.942Z,75.20
2018-12-21T22:32:36.782Z,75.10
2018-12-21T22:35:06.200Z,75.30
2018-12-21T22:37:34.796Z,75.20
2018-12-21T22:40:04.194Z,75.30
2018-12-21T22:42:33.478Z,75.30
2018-12-21T22:45:02.482Z,75.60
2018-12-21T22:47:31.205Z,75.40
2018-12-21T22:50:00.193Z,75.20
2018-12-21T22:52:29.022Z,75.30
2018-12-21T22:54:57.805Z,75.10
2018-12-21T22:57:26.696Z,75.60
2018-12-21T22:59:55.451Z,75.10
2018-12-21T23:02:24.174Z,75.60
2018-12-21T23:04:52.746Z,74.70
2018-12-21T23:07:21.550Z,75.30
2018-12-21T23:09:50.308Z,75.10
2018-12-21T23:12:18.926Z,74.50
2018-12-21T23:14:47.585Z,76.10
2018-12-21T23:17:16.711Z,75.00
2018-12-21T23:19:45.345Z,75.20
2018-12-21T23:22:13.948Z,75.30
2018-12-21T23:24:42.594Z,75.90
2018-12-21T23:27:11.221Z,76.30
2018-12-21T23:29:40.338Z,76.60
2018-12-21T23:32:09.111Z,76.30
2018-12-21T23:34:38.011Z,76.90
2018-12-21T23:37:06.661Z,76.80
2018-12-21T23:39:35.716Z,76.60
2018-12-21T23:42:04.619Z,76.40
2018-12-21T23:44:33.346Z,76.30
2018-12-21T23:47:02.073Z,76.30
2018-12-21T23:49:30.730Z,76.20
2018-12-21T23:51:59.732Z,76.80
2018-12-21T23:54:28.682Z,76.80
2018-12-21T23:56:57.588Z,77.30
2018-12-21T23:59:26.402Z,77.20
